Time;durP1;ratioP1;P1;durP2;ratioP2;P2;SDS_P1;SDS_P2;PMS_P1;PMS_P2;Temp;Humidity;BMP_temperature;BMP_pressure;BME280_temperature;BME280_humidity;BME280_pressure;Samples;Min_cycle;Max_cycle;Signal;HPM_P1;HPM_P2
2021/09/12 00:02:55;;;;;;;;;;;23.40;47.80;;;;;;8365224;28;19916;-47
2021/09/12 00:06:55;;;;;;;;;;;23.40;47.80;;;;;;8364910;28;20334;-50
2021/09/12 00:10:56;;;;;;;;;;;23.40;47.80;;;;;;8365189;28;19982;-50
2021/09/12 00:14:56;;;;;;;;;;;23.40;47.80;;;;;;8365503;28;20392;-47
2021/09/12 00:18:57;;;;;;;;;;;23.40;47.80;;;;;;8364478;28;19917;-50
2021/09/12 00:22:57;;;;;;;;;;;23.40;47.80;;;;;;8364941;28;19939;-48
2021/09/12 00:26:58;;;;;;;;;;;23.40;47.80;;;;;;8364648;28;19917;-47
2021/09/12 00:30:58;;;;;;;;;;;23.30;47.80;;;;;;8364774;28;20279;-48
2021/09/12 00:34:59;;;;;;;;;;;23.30;47.80;;;;;;8364211;28;20320;-47
2021/09/12 00:38:59;;;;;;;;;;;23.30;47.80;;;;;;8364070;28;20286;-48
2021/09/12 00:43:00;;;;;;;;;;;23.30;47.80;;;;;;8363618;28;20013;-47
2021/09/12 00:47:10;;;;;;;;;;;23.30;47.80;;;;;;8364624;28;20448;-48
2021/09/12 00:51:11;;;;;;;;;;;23.30;47.80;;;;;;8364112;28;19917;-47
2021/09/12 00:55:13;;;;;;;;;;;23.30;47.80;;;;;;8363364;28;19967;-49
2021/09/12 00:59:14;;;;;;;;;;;23.30;47.80;;;;;;8364133;28;20336;-48
2021/09/12 01:03:14;;;;;;;;;;;23.30;47.80;;;;;;8363767;28;19956;-47
2021/09/12 01:07:15;;;;;;;;;;;23.30;47.80;;;;;;8363769;28;19917;-48
2021/09/12 01:11:16;;;;;;;;;;;23.30;47.80;;;;;;8363306;28;19960;-47
2021/09/12 01:15:16;;;;;;;;;;;23.30;47.80;;;;;;8363284;28;19920;-49
2021/09/12 01:19:17;;;;;;;;;;;23.30;47.80;;;;;;8362897;28;19917;-48
2021/09/12 01:23:17;;;;;;;;;;;23.30;47.80;;;;;;8364189;28;19913;-48
2021/09/12 01:27:18;;;;;;;;;;;23.30;47.80;;;;;;8363118;28;19917;-47
2021/09/12 01:31:19;;;;;;;;;;;23.20;47.80;;;;;;8362749;28;19999;-47
2021/09/12 01:35:20;;;;;;;;;;;23.30;47.80;;;;;;8363398;28;20032;-48
2021/09/12 01:39:20;;;;;;;;;;;23.20;47.80;;;;;;8363115;28;20454;-49
2021/09/12 01:43:21;;;;;;;;;;;23.20;48.40;;;;;;8363453;28;19921;-49
2021/09/12 01:47:21;;;;;;;;;;;23.20;47.80;;;;;;8362823;28;19924;-49
2021/09/12 01:51:22;;;;;;;;;;;23.20;47.80;;;;;;8363164;28;19913;-48
2021/09/12 01:55:22;;;;;;;;;;;23.20;47.80;;;;;;8361925;28;19925;-48
2021/09/12 01:59:23;;;;;;;;;;;23.20;47.80;;;;;;8363368;28;20293;-47
2021/09/12 02:03:24;;;;;;;;;;;23.20;47.80;;;;;;8362796;28;19917;-47
2021/09/12 02:07:24;;;;;;;;;;;23.20;47.80;;;;;;8362144;28;19916;-47
2021/09/12 02:11:24;;;;;;;;;;;23.20;47.90;;;;;;8362753;28;20003;-48
2021/09/12 02:15:25;;;;;;;;;;;23.20;47.80;;;;;;8363148;28;19917;-48
2021/09/12 02:19:25;;;;;;;;;;;23.20;47.80;;;;;;8361956;28;19917;-47
2021/09/12 02:23:26;;;;;;;;;;;23.20;47.80;;;;;;8367810;28;19917;-46
2021/09/12 02:27:26;;;;;;;;;;;23.20;47.80;;;;;;8368286;28;19923;-47
2021/09/12 02:31:27;;;;;;;;;;;23.10;47.80;;;;;;8368060;28;19920;-50
2021/09/12 02:35:27;;;;;;;;;;;23.10;47.80;;;;;;8368742;28;19921;-48
2021/09/12 02:39:27;;;;;;;;;;;23.10;47.80;;;;;;8368285;28;20292;-50
2021/09/12 02:43:29;;;;;;;;;;;23.10;47.80;;;;;;8367656;28;20007;-47
2021/09/12 02:47:30;;;;;;;;;;;23.20;47.90;;;;;;8368189;28;19975;-49
2021/09/12 02:51:30;;;;;;;;;;;23.20;47.90;;;;;;8368391;28;19913;-49
2021/09/12 02:55:30;;;;;;;;;;;23.10;47.90;;;;;;8367032;28;19925;-47
2021/09/12 02:59:31;;;;;;;;;;;23.10;47.90;;;;;;8367341;28;19917;-49
2021/09/12 03:03:32;;;;;;;;;;;23.10;47.90;;;;;;8367277;28;19955;-49
2021/09/12 03:07:32;;;;;;;;;;;23.10;47.90;;;;;;8367501;28;19913;-47
2021/09/12 03:11:33;;;;;;;;;;;23.10;47.90;;;;;;8367341;28;20004;-48
2021/09/12 03:15:33;;;;;;;;;;;23.10;47.90;;;;;;8366659;28;19921;-49
2021/09/12 03:19:34;;;;;;;;;;;23.10;47.80;;;;;;8373512;28;20294;-48
2021/09/12 03:23:34;;;;;;;;;;;23.10;47.90;;;;;;8397243;28;19912;-48
2021/09/12 03:27:35;;;;;;;;;;;23.10;47.90;;;;;;8367264;28;19970;-47
2021/09/12 03:31:35;;;;;;;;;;;23.00;48.40;;;;;;8365625;28;19917;-48
2021/09/12 03:35:35;;;;;;;;;;;23.00;47.80;;;;;;8366128;28;20301;-47
2021/09/12 03:39:36;;;;;;;;;;;23.10;47.90;;;;;;8366412;28;19959;-48
2021/09/12 03:43:36;;;;;;;;;;;23.00;47.80;;;;;;8366158;28;19983;-49
2021/09/12 03:47:37;;;;;;;;;;;23.00;47.80;;;;;;8365859;28;19917;-48
2021/09/12 03:51:38;;;;;;;;;;;23.00;47.80;;;;;;8365749;28;19913;-50
2021/09/12 03:55:38;;;;;;;;;;;23.00;47.80;;;;;;8365140;28;20035;-49
2021/09/12 03:59:38;;;;;;;;;;;23.00;47.90;;;;;;8366528;28;19928;-48
2021/09/12 04:03:39;;;;;;;;;;;23.00;47.80;;;;;;8365482;28;19928;-47
2021/09/12 04:07:39;;;;;;;;;;;22.90;47.80;;;;;;8364676;28;19967;-47
2021/09/12 04:11:40;;;;;;;;;;;23.00;47.90;;;;;;8364996;28;19925;-47
2021/09/12 04:15:40;;;;;;;;;;;23.00;47.80;;;;;;8364981;28;19932;-50
2021/09/12 04:19:41;;;;;;;;;;;23.00;47.80;;;;;;8365323;28;19913;-48
2021/09/12 04:23:41;;;;;;;;;;;22.90;47.80;;;;;;8364763;28;19971;-48
2021/09/12 04:27:42;;;;;;;;;;;22.90;47.80;;;;;;8364536;28;19917;-47
2021/09/12 04:31:42;;;;;;;;;;;22.90;47.80;;;;;;8363782;28;19917;-49
2021/09/12 04:35:43;;;;;;;;;;;22.90;47.80;;;;;;8365202;28;19920;-51
2021/09/12 04:39:43;;;;;;;;;;;22.90;47.80;;;;;;8364273;28;19956;-49
2021/09/12 04:43:44;;;;;;;;;;;22.90;47.80;;;;;;8362913;28;19916;-48
2021/09/12 04:47:44;;;;;;;;;;;22.90;47.80;;;;;;8364454;28;19916;-47
2021/09/12 04:51:45;;;;;;;;;;;22.90;47.80;;;;;;8364278;28;19913;-48
2021/09/12 04:55:45;;;;;;;;;;;22.90;47.80;;;;;;8363882;28;19956;-50
2021/09/12 04:59:45;;;;;;;;;;;22.90;47.80;;;;;;8363778;28;19927;-49
2021/09/12 05:03:46;;;;;;;;;;;22.80;47.70;;;;;;8363537;28;20336;-50
2021/09/12 05:07:46;;;;;;;;;;;22.90;47.80;;;;;;8363040;28;20361;-48
2021/09/12 05:11:47;;;;;;;;;;;22.80;47.80;;;;;;8364497;28;20027;-48
2021/09/12 05:15:47;;;;;;;;;;;22.80;47.80;;;;;;8363252;28;19932;-48
2021/09/12 05:19:48;;;;;;;;;;;22.80;47.70;;;;;;8362971;28;19917;-49
2021/09/12 05:23:48;;;;;;;;;;;22.80;47.70;;;;;;8363226;28;19916;-48
2021/09/12 05:27:49;;;;;;;;;;;22.80;47.80;;;;;;8363870;28;19920;-50
2021/09/12 05:31:50;;;;;;;;;;;22.80;47.80;;;;;;8362593;28;19917;-51
2021/09/12 05:35:51;;;;;;;;;;;22.80;47.70;;;;;;8363142;28;20411;-49
2021/09/12 05:39:51;;;;;;;;;;;22.80;47.70;;;;;;8362990;28;19952;-49
2021/09/12 05:43:52;;;;;;;;;;;22.80;47.70;;;;;;8362423;28;19917;-47
2021/09/12 05:47:52;;;;;;;;;;;22.80;47.70;;;;;;8363432;28;19920;-48
2021/09/12 05:51:53;;;;;;;;;;;22.80;47.80;;;;;;8362794;28;19917;-49
2021/09/12 05:55:53;;;;;;;;;;;22.80;47.80;;;;;;8365271;28;20006;-50
2021/09/12 05:59:53;;;;;;;;;;;22.80;47.70;;;;;;8369503;28;19917;-47
2021/09/12 06:03:54;;;;;;;;;;;22.80;47.70;;;;;;8369488;28;19913;-47
2021/09/12 06:07:54;;;;;;;;;;;22.80;47.70;;;;;;8368813;28;19921;-48
2021/09/12 06:11:55;;;;;;;;;;;22.80;47.70;;;;;;8369086;28;19921;-50
2021/09/12 06:15:55;;;;;;;;;;;22.80;47.70;;;;;;8368311;28;19920;-47
2021/09/12 06:19:56;;;;;;;;;;;22.80;47.70;;;;;;8369717;28;19913;-48
2021/09/12 06:23:56;;;;;;;;;;;22.80;47.70;;;;;;8368551;28;20377;-50
2021/09/12 06:27:57;;;;;;;;;;;22.80;47.70;;;;;;8367762;28;19935;-47
2021/09/12 06:31:58;;;;;;;;;;;22.80;47.70;;;;;;8368267;28;19939;-48
2021/09/12 06:35:58;;;;;;;;;;;22.80;47.70;;;;;;8367919;28;19921;-47
2021/09/12 06:39:59;;;;;;;;;;;22.80;47.70;;;;;;8368191;28;19928;-48
2021/09/12 06:43:59;;;;;;;;;;;22.80;47.70;;;;;;8367974;28;19991;-48
2021/09/12 06:48:00;;;;;;;;;;;22.80;47.70;;;;;;8367908;28;19923;-48
2021/09/12 06:52:00;;;;;;;;;;;22.80;47.70;;;;;;8367125;28;19970;-48
2021/09/12 06:56:01;;;;;;;;;;;22.80;47.70;;;;;;8368121;28;19925;-47
2021/09/12 07:00:01;;;;;;;;;;;22.80;47.70;;;;;;8367286;28;19963;-50
2021/09/12 07:04:02;;;;;;;;;;;22.80;47.70;;;;;;8367040;28;19959;-49
2021/09/12 07:08:03;;;;;;;;;;;22.80;47.70;;;;;;8365025;28;19948;-48
2021/09/12 07:12:03;;;;;;;;;;;22.80;47.70;;;;;;8367651;28;20058;-49
2021/09/12 07:16:04;;;;;;;;;;;22.70;47.60;;;;;;8366464;28;19924;-49
2021/09/12 07:20:05;;;;;;;;;;;22.80;47.70;;;;;;8367180;28;20365;-48
2021/09/12 07:24:05;;;;;;;;;;;22.80;47.70;;;;;;8366607;28;19955;-48
2021/09/12 07:28:06;;;;;;;;;;;22.70;47.70;;;;;;8365853;28;19925;-49
2021/09/12 07:32:06;;;;;;;;;;;22.70;47.70;;;;;;8367161;28;20352;-47
2021/09/12 07:36:07;;;;;;;;;;;22.80;47.70;;;;;;8366214;28;19924;-50
2021/09/12 07:40:07;;;;;;;;;;;22.80;47.70;;;;;;8365666;28;19924;-48
2021/09/12 07:44:08;;;;;;;;;;;22.80;47.70;;;;;;8365968;28;20000;-50
2021/09/12 07:48:08;;;;;;;;;;;22.80;47.70;;;;;;8366716;28;20369;-47
2021/09/12 07:52:09;;;;;;;;;;;22.80;47.70;;;;;;8365381;28;20000;-48
2021/09/12 07:56:09;;;;;;;;;;;22.80;47.70;;;;;;8365962;28;19970;-48
2021/09/12 08:00:10;;;;;;;;;;;22.80;47.70;;;;;;8365871;28;20362;-48
2021/09/12 08:04:11;;;;;;;;;;;22.80;47.70;;;;;;8365565;28;19916;-47
2021/09/12 08:08:11;;;;;;;;;;;22.80;47.70;;;;;;8365343;28;19935;-50
2021/09/12 08:12:12;;;;;;;;;;;22.80;47.70;;;;;;8365054;28;20005;-48
2021/09/12 08:16:12;;;;;;;;;;;22.80;47.70;;;;;;8364456;28;19925;-48
2021/09/12 08:20:12;;;;;;;;;;;22.80;47.70;;;;;;8363716;28;20289;-49
2021/09/12 08:24:13;;;;;;;;;;;22.80;47.70;;;;;;8365435;28;19995;-47
2021/09/12 08:28:13;;;;;;;;;;;22.80;47.70;;;;;;8364314;28;19960;-48
2021/09/12 08:32:14;;;;;;;;;;;22.80;47.70;;;;;;8364774;28;19978;-48
2021/09/12 08:36:14;;;;;;;;;;;22.80;47.70;;;;;;8364284;28;19945;-48
2021/09/12 08:40:15;;;;;;;;;;;22.80;47.70;;;;;;8364701;28;19961;-51
2021/09/12 08:44:16;;;;;;;;;;;22.80;47.70;;;;;;8364434;28;19916;-49
2021/09/12 08:48:17;;;;;;;;;;;22.90;47.80;;;;;;8364165;28;20328;-48
2021/09/12 08:52:18;;;;;;;;;;;22.90;48.00;;;;;;8363611;28;20007;-47
2021/09/12 08:56:18;;;;;;;;;;;22.90;47.70;;;;;;8364086;28;20416;-48
2021/09/12 09:00:25;;;;;;;;;;;22.90;47.70;;;;;;8364532;28;19919;-47
2021/09/12 09:04:27;;;;;;;;;;;22.90;47.80;;;;;;8363277;28;19917;-48
2021/09/12 09:08:27;;;;;;;;;;;22.90;47.70;;;;;;8363761;28;20305;-49
2021/09/12 09:12:34;;;;;;;;;;;22.90;47.70;;;;;;8363603;28;19916;-48
2021/09/12 09:16:35;;;;;;;;;;;22.90;47.70;;;;;;8363668;28;20274;-48
2021/09/12 09:20:35;;;;;;;;;;;22.90;47.70;;;;;;8363249;28;19917;-50
2021/09/12 09:24:36;;;;;;;;;;;22.90;47.70;;;;;;8363529;28;19917;-48
2021/09/12 09:28:52;;;;;;;;;;;23.00;47.70;;;;;;8362523;28;19924;-48
2021/09/12 09:32:52;;;;;;;;;;;23.00;47.70;;;;;;8363154;28;19967;-48
2021/09/12 09:37:05;;;;;;;;;;;23.00;47.70;;;;;;8363633;28;20003;-47
2021/09/12 09:41:10;;;;;;;;;;;23.00;47.70;;;;;;8362725;28;20378;-49
2021/09/12 09:45:18;;;;;;;;;;;23.10;47.70;;;;;;8362887;28;20476;-48
2021/09/12 09:49:19;;;;;;;;;;;23.00;47.70;;;;;;8362632;28;19924;-48
2021/09/12 09:53:20;;;;;;;;;;;23.10;47.70;;;;;;8363738;28;19917;-48
2021/09/12 09:57:20;;;;;;;;;;;23.10;47.70;;;;;;8362608;28;19931;-49
2021/09/12 10:01:21;;;;;;;;;;;23.10;47.70;;;;;;8362585;28;19943;-48
2021/09/12 10:05:21;;;;;;;;;;;23.10;47.70;;;;;;8362434;28;19917;-48
2021/09/12 10:09:22;;;;;;;;;;;23.10;47.70;;;;;;8363053;28;19952;-47
2021/09/12 10:13:24;;;;;;;;;;;23.10;47.60;;;;;;8362771;28;19913;-52
2021/09/12 10:17:31;;;;;;;;;;;23.10;47.60;;;;;;8362390;28;20394;-48
2021/09/12 10:21:32;;;;;;;;;;;23.20;47.70;;;;;;8366236;28;19917;-50
2021/09/12 10:25:33;;;;;;;;;;;23.20;47.60;;;;;;8361898;28;19917;-48
2021/09/12 10:29:43;;;;;;;;;;;23.20;47.60;;;;;;8363329;28;19913;-47
2021/09/12 10:34:01;;;;;;;;;;;23.20;47.60;;;;;;8362183;28;19917;-50
2021/09/12 10:38:03;;;;;;;;;;;23.20;47.60;;;;;;8362131;28;19925;-47
2021/09/12 10:42:09;;;;;;;;;;;23.20;47.50;;;;;;8363582;28;19982;-49
2021/09/12 10:46:10;;;;;;;;;;;23.30;47.60;;;;;;8367494;28;20004;-49
2021/09/12 10:50:29;;;;;;;;;;;23.30;47.60;;;;;;8368474;28;20385;-48
2021/09/12 10:54:31;;;;;;;;;;;23.30;47.60;;;;;;8367762;28;19953;-49
2021/09/12 10:58:32;;;;;;;;;;;23.30;47.50;;;;;;8367178;28;20023;-51
2021/09/12 11:02:32;;;;;;;;;;;23.30;47.50;;;;;;8367328;28;20377;-47
2021/09/12 11:06:37;;;;;;;;;;;23.30;47.50;;;;;;8367315;28;20285;-49
2021/09/12 11:10:41;;;;;;;;;;;23.30;47.50;;;;;;8367637;28;19921;-48
2021/09/12 11:14:41;;;;;;;;;;;23.40;47.50;;;;;;8367431;28;19916;-49
2021/09/12 11:19:00;;;;;;;;;;;23.40;47.50;;;;;;8366739;28;19921;-49
2021/09/12 11:23:01;;;;;;;;;;;23.40;47.50;;;;;;8366644;28;19921;-47
2021/09/12 11:27:03;;;;;;;;;;;23.40;47.50;;;;;;8367201;28;20300;-48
2021/09/12 11:31:03;;;;;;;;;;;23.40;47.50;;;;;;8399570;28;19952;-46
2021/09/12 11:35:04;;;;;;;;;;;23.40;47.50;;;;;;8399342;28;19916;-49
2021/09/12 11:39:04;;;;;;;;;;;23.40;47.50;;;;;;8399434;28;19924;-47
2021/09/12 11:43:14;;;;;;;;;;;23.40;47.50;;;;;;8399051;28;19924;-49
2021/09/12 11:47:19;;;;;;;;;;;23.40;48.00;;;;;;8400210;28;20267;-49
2021/09/12 11:51:25;;;;;;;;;;;23.40;47.50;;;;;;8399032;28;20373;-48
2021/09/12 11:55:27;;;;;;;;;;;23.40;47.50;;;;;;8398062;28;19916;-48
2021/09/12 11:59:30;;;;;;;;;;;23.50;47.60;;;;;;8398810;28;19919;-48
2021/09/12 12:03:31;;;;;;;;;;;23.50;47.50;;;;;;8398784;28;19920;-47
2021/09/12 12:07:35;;;;;;;;;;;23.50;47.50;;;;;;8398754;28;20426;-48
2021/09/12 12:11:39;;;;;;;;;;;23.50;47.50;;;;;;8398664;28;20434;-48
2021/09/12 12:15:42;;;;;;;;;;;23.60;47.50;;;;;;8398377;28;19924;-47
2021/09/12 12:19:43;;;;;;;;;;;23.60;47.50;;;;;;8397808;28;19987;-47
2021/09/12 12:23:47;;;;;;;;;;;23.60;47.40;;;;;;8398710;28;20015;-47
2021/09/12 12:27:50;;;;;;;;;;;23.60;47.40;;;;;;8397805;28;19962;-49
2021/09/12 12:31:50;;;;;;;;;;;23.60;47.40;;;;;;8397401;28;19999;-49
2021/09/12 12:36:10;;;;;;;;;;;23.70;47.40;;;;;;8397501;28;19931;-47
2021/09/12 12:40:13;;;;;;;;;;;23.70;47.40;;;;;;8396998;28;20346;-48
2021/09/12 12:44:14;;;;;;;;;;;23.70;47.40;;;;;;8398423;28;20341;-48
2021/09/12 12:48:14;;;;;;;;;;;23.70;47.40;;;;;;8397478;28;19923;-48
2021/09/12 12:52:15;;;;;;;;;;;23.70;47.40;;;;;;8396562;28;19916;-48
2021/09/12 12:56:18;;;;;;;;;;;23.70;47.40;;;;;;8397194;28;19983;-49
2021/09/12 13:00:21;;;;;;;;;;;23.70;47.40;;;;;;8397787;28;19919;-47
2021/09/12 13:04:22;;;;;;;;;;;23.70;47.30;;;;;;8395897;28;19917;-48
2021/09/12 13:08:25;;;;;;;;;;;23.70;47.30;;;;;;8396769;28;20384;-48
2021/09/12 13:12:25;;;;;;;;;;;23.70;47.30;;;;;;8400741;28;19923;-48
2021/09/12 13:16:26;;;;;;;;;;;23.80;47.30;;;;;;8396305;28;19921;-49
2021/09/12 13:20:26;;;;;;;;;;;23.80;47.30;;;;;;8397294;28;19913;-48
2021/09/12 13:24:27;;;;;;;;;;;23.80;47.30;;;;;;8396543;28;19939;-48
2021/09/12 13:28:27;;;;;;;;;;;23.80;47.30;;;;;;8396110;28;19939;-49
2021/09/12 13:32:28;;;;;;;;;;;23.80;47.30;;;;;;8396409;28;19924;-48
2021/09/12 13:36:29;;;;;;;;;;;23.80;47.30;;;;;;8396969;28;19960;-47
2021/09/12 13:40:29;;;;;;;;;;;23.80;47.30;;;;;;8395640;28;19955;-49
2021/09/12 13:44:30;;;;;;;;;;;23.80;47.30;;;;;;8396382;28;19943;-48
2021/09/12 13:48:30;;;;;;;;;;;23.80;47.30;;;;;;8396073;28;19925;-48
2021/09/12 13:52:31;;;;;;;;;;;23.80;47.30;;;;;;8396256;28;19917;-47
2021/09/12 13:56:31;;;;;;;;;;;23.80;47.30;;;;;;8396006;28;19935;-47
2021/09/12 14:00:33;;;;;;;;;;;23.80;47.30;;;;;;8396121;28;19977;-48
2021/09/12 14:04:39;;;;;;;;;;;23.80;47.30;;;;;;8395516;28;20003;-48
2021/09/12 14:08:39;;;;;;;;;;;23.80;47.30;;;;;;8396694;28;19925;-48
2021/09/12 14:12:40;;;;;;;;;;;23.90;47.20;;;;;;8396551;28;19919;-48
2021/09/12 14:16:40;;;;;;;;;;;23.90;47.20;;;;;;8397751;28;20389;-48
2021/09/12 14:20:41;;;;;;;;;;;23.90;47.20;;;;;;8402064;28;19921;-48
2021/09/12 14:24:41;;;;;;;;;;;23.90;47.20;;;;;;8401803;28;19952;-48
2021/09/12 14:28:42;;;;;;;;;;;23.90;47.20;;;;;;8401843;28;19972;-49
2021/09/12 14:32:42;;;;;;;;;;;23.90;47.20;;;;;;8401524;28;19944;-49
2021/09/12 14:36:42;;;;;;;;;;;23.90;47.20;;;;;;8401348;28;19924;-48
2021/09/12 14:40:43;;;;;;;;;;;23.90;47.20;;;;;;8400756;28;19917;-47
2021/09/12 14:44:43;;;;;;;;;;;24.00;47.20;;;;;;8401306;28;19912;-49
2021/09/12 14:48:44;;;;;;;;;;;23.90;47.20;;;;;;8401816;28;20288;-51
2021/09/12 14:52:44;;;;;;;;;;;24.00;47.20;;;;;;8400512;28;19917;-50
2021/09/12 14:56:46;;;;;;;;;;;24.00;47.20;;;;;;8400777;28;19931;-48
2021/09/12 15:00:47;;;;;;;;;;;24.00;47.20;;;;;;8400688;28;19924;-48
2021/09/12 15:04:47;;;;;;;;;;;24.00;47.20;;;;;;8399553;28;19912;-48
2021/09/12 15:08:48;;;;;;;;;;;24.00;47.20;;;;;;8400907;28;20019;-50
2021/09/12 15:12:49;;;;;;;;;;;24.00;47.20;;;;;;8400217;28;20047;-49
2021/09/12 15:16:49;;;;;;;;;;;24.00;47.20;;;;;;8399800;28;20019;-49
2021/09/12 15:20:50;;;;;;;;;;;24.00;47.20;;;;;;8401013;28;19912;-47
2021/09/12 15:24:50;;;;;;;;;;;24.00;47.20;;;;;;8400022;28;19923;-50
2021/09/12 15:28:51;;;;;;;;;;;24.00;47.10;;;;;;8398611;28;19928;-48
2021/09/12 15:32:51;;;;;;;;;;;24.00;47.10;;;;;;8399940;28;20388;-48
2021/09/12 15:36:52;;;;;;;;;;;24.00;47.20;;;;;;8399530;28;19931;-48
2021/09/12 15:40:52;;;;;;;;;;;24.00;47.10;;;;;;8399595;28;19978;-49
2021/09/12 15:44:53;;;;;;;;;;;24.00;47.10;;;;;;8399302;28;19916;-48
2021/09/12 15:48:53;;;;;;;;;;;24.00;47.10;;;;;;8399276;28;19917;-47
2021/09/12 15:52:53;;;;;;;;;;;24.00;47.10;;;;;;8398674;28;20307;-50
2021/09/12 15:56:54;;;;;;;;;;;24.00;47.10;;;;;;8399596;28;19994;-49
2021/09/12 16:00:54;;;;;;;;;;;24.00;47.00;;;;;;8398464;28;19920;-48
2021/09/12 16:04:55;;;;;;;;;;;24.00;47.10;;;;;;8398556;28;19999;-48
2021/09/12 16:08:55;;;;;;;;;;;24.00;47.10;;;;;;8398729;28;19924;-48
2021/09/12 16:12:56;;;;;;;;;;;24.00;47.10;;;;;;8398670;28;19913;-49
2021/09/12 16:16:56;;;;;;;;;;;24.00;47.10;;;;;;8398117;28;19967;-49
2021/09/12 16:20:56;;;;;;;;;;;24.10;47.10;;;;;;8398267;28;19958;-48
2021/09/12 16:24:57;;;;;;;;;;;24.00;47.10;;;;;;8397376;28;19917;-48
2021/09/12 16:28:57;;;;;;;;;;;24.00;47.10;;;;;;8397810;28;20712;-48
2021/09/12 16:32:58;;;;;;;;;;;24.00;47.10;;;;;;8398395;28;19913;-47
2021/09/12 16:36:58;;;;;;;;;;;24.00;47.00;;;;;;8397017;28;19960;-48
2021/09/12 16:40:59;;;;;;;;;;;24.00;47.10;;;;;;8396762;28;19917;-52
2021/09/12 16:45:03;;;;;;;;;;;24.00;47.10;;;;;;8397605;28;19917;-49
2021/09/12 16:49:03;;;;;;;;;;;24.00;47.10;;;;;;8397492;28;19913;-49
2021/09/12 16:53:04;;;;;;;;;;;24.00;47.10;;;;;;8397101;28;19920;-47
2021/09/12 16:57:05;;;;;;;;;;;24.00;47.10;;;;;;8397502;28;19960;-49
2021/09/12 17:01:05;;;;;;;;;;;24.00;47.00;;;;;;8396586;28;20281;-48
2021/09/12 17:05:06;;;;;;;;;;;24.00;47.10;;;;;;8397139;28;19966;-49
2021/09/12 17:09:07;;;;;;;;;;;24.00;47.10;;;;;;8397319;28;19966;-48
2021/09/12 17:13:07;;;;;;;;;;;24.00;47.10;;;;;;8396349;28;19916;-48
2021/09/12 17:17:08;;;;;;;;;;;24.00;47.10;;;;;;8396599;28;19960;-50
2021/09/12 17:21:09;;;;;;;;;;;24.00;47.10;;;;;;8396796;28;20011;-47
2021/09/12 17:25:12;;;;;;;;;;;24.00;47.10;;;;;;8396885;28;19912;-49
2021/09/12 17:29:12;;;;;;;;;;;24.00;47.10;;;;;;8396781;28;19923;-49
2021/09/12 17:33:13;;;;;;;;;;;24.00;47.20;;;;;;8396276;28;19916;-47
2021/09/12 17:37:13;;;;;;;;;;;24.00;47.20;;;;;;8396279;28;20280;-48
2021/09/12 17:41:14;;;;;;;;;;;24.00;47.20;;;;;;8395674;28;19992;-52
2021/09/12 17:45:14;;;;;;;;;;;24.00;47.20;;;;;;8396128;28;19923;-49
2021/09/12 17:49:15;;;;;;;;;;;24.00;47.20;;;;;;8395725;28;19916;-50
2021/09/12 17:53:15;;;;;;;;;;;24.00;47.30;;;;;;8401555;28;19924;-49
2021/09/12 17:57:15;;;;;;;;;;;24.00;47.30;;;;;;8402484;28;19974;-48
2021/09/12 18:01:16;;;;;;;;;;;24.00;47.30;;;;;;8402809;28;19913;-47
2021/09/12 18:05:17;;;;;;;;;;;23.90;47.30;;;;;;8402748;28;19916;-49
2021/09/12 18:09:18;;;;;;;;;;;23.90;47.30;;;;;;8401217;28;19927;-48
2021/09/12 18:13:18;;;;;;;;;;;23.90;47.30;;;;;;8402150;28;19917;-50
2021/09/12 18:17:18;;;;;;;;;;;23.90;47.30;;;;;;8402554;28;19928;-49
2021/09/12 18:21:19;;;;;;;;;;;23.90;47.30;;;;;;8401745;28;20334;-48
2021/09/12 18:25:23;;;;;;;;;;;23.90;47.40;;;;;;8401386;28;19928;-49
2021/09/12 18:29:25;;;;;;;;;;;23.90;47.40;;;;;;8401944;28;19962;-49
2021/09/12 18:33:26;;;;;;;;;;;23.90;47.40;;;;;;8402237;28;19919;-48
2021/09/12 18:37:26;;;;;;;;;;;23.90;47.40;;;;;;8400881;28;19959;-48
2021/09/12 18:41:27;;;;;;;;;;;23.90;47.40;;;;;;8401406;28;19917;-48
2021/09/12 18:45:27;;;;;;;;;;;23.90;47.40;;;;;;8401088;28;20446;-48
2021/09/12 18:49:28;;;;;;;;;;;23.90;47.40;;;;;;8400734;28;20031;-48
2021/09/12 18:53:28;;;;;;;;;;;23.90;47.40;;;;;;8401647;28;19919;-48
2021/09/12 18:57:29;;;;;;;;;;;23.90;47.40;;;;;;8400722;28;19924;-48
2021/09/12 19:01:29;;;;;;;;;;;23.80;47.40;;;;;;8399928;28;19917;-49
2021/09/12 19:05:30;;;;;;;;;;;23.90;47.40;;;;;;8399835;28;19947;-50
2021/09/12 19:09:30;;;;;;;;;;;23.90;47.50;;;;;;8401645;28;19925;-48
2021/09/12 19:13:31;;;;;;;;;;;23.80;47.40;;;;;;8399759;28;19921;-51
2021/09/12 19:17:31;;;;;;;;;;;23.80;47.40;;;;;;8400200;28;19928;-48
2021/09/12 19:21:31;;;;;;;;;;;23.80;47.40;;;;;;8400365;28;19920;-49
2021/09/12 19:25:32;;;;;;;;;;;23.80;47.40;;;;;;8399693;28;19912;-49
2021/09/12 19:29:32;;;;;;;;;;;23.80;47.40;;;;;;8400415;28;20369;-48
2021/09/12 19:33:33;;;;;;;;;;;23.80;47.40;;;;;;8398341;28;19916;-48
2021/09/12 19:37:33;;;;;;;;;;;23.80;47.40;;;;;;8398904;28;19924;-48
2021/09/12 19:41:34;;;;;;;;;;;23.80;47.40;;;;;;8399314;28;20385;-47
2021/09/12 19:45:34;;;;;;;;;;;23.80;47.40;;;;;;8400136;28;20011;-48
2021/09/12 19:49:35;;;;;;;;;;;23.80;47.40;;;;;;8398918;28;20001;-49
2021/09/12 19:53:40;;;;;;;;;;;23.80;47.40;;;;;;8399253;28;19971;-52
2021/09/12 19:57:41;;;;;;;;;;;23.80;47.40;;;;;;8402227;28;20436;-49
2021/09/12 20:01:41;;;;;;;;;;;23.80;47.40;;;;;;8398991;28;19920;-50
2021/09/12 20:05:42;;;;;;;;;;;23.80;47.40;;;;;;8398597;28;19947;-48
2021/09/12 20:09:42;;;;;;;;;;;23.80;47.40;;;;;;8398879;28;19943;-49
2021/09/12 20:13:43;;;;;;;;;;;23.80;47.50;;;;;;8397893;28;19920;-49
2021/09/12 20:17:43;;;;;;;;;;;23.80;47.40;;;;;;8398342;28;19996;-50
2021/09/12 20:21:44;;;;;;;;;;;23.80;47.40;;;;;;8398971;28;19966;-48
2021/09/12 20:25:44;;;;;;;;;;;23.80;47.40;;;;;;8397449;28;19923;-48
2021/09/12 20:29:47;;;;;;;;;;;23.80;47.40;;;;;;8397404;28;22536;-52
2021/09/12 20:33:47;;;;;;;;;;;23.80;47.40;;;;;;8397825;28;19919;-47
2021/09/12 20:37:47;;;;;;;;;;;23.80;47.40;;;;;;8397746;28;20281;-49
2021/09/12 20:41:48;;;;;;;;;;;23.80;47.40;;;;;;8397445;28;20442;-50
2021/09/12 20:45:49;;;;;;;;;;;23.70;47.40;;;;;;8397355;28;19919;-49
2021/09/12 20:49:49;;;;;;;;;;;23.70;47.40;;;;;;8396902;28;19923;-49
2021/09/12 20:53:50;;;;;;;;;;;23.80;47.40;;;;;;8396600;28;20361;-49
2021/09/12 20:57:50;;;;;;;;;;;23.70;47.40;;;;;;8397011;28;19924;-50
2021/09/12 21:01:51;;;;;;;;;;;23.80;47.50;;;;;;8396450;28;20545;-49
2021/09/12 21:05:51;;;;;;;;;;;23.70;47.40;;;;;;8396862;28;19917;-48
2021/09/12 21:09:52;;;;;;;;;;;23.70;47.40;;;;;;8397438;28;19928;-47
2021/09/12 21:13:52;;;;;;;;;;;23.70;47.40;;;;;;8397025;28;20372;-48
2021/09/12 21:17:53;;;;;;;;;;;23.70;47.40;;;;;;8396554;28;20385;-49
2021/09/12 21:21:53;;;;;;;;;;;23.70;47.40;;;;;;8396579;28;19917;-48
2021/09/12 21:25:54;;;;;;;;;;;23.70;47.40;;;;;;8394044;28;20331;-51
2021/09/12 21:29:54;;;;;;;;;;;23.70;47.40;;;;;;8397230;28;19963;-47
2021/09/12 21:33:54;;;;;;;;;;;23.70;47.40;;;;;;8395846;28;20383;-47
2021/09/12 21:37:55;;;;;;;;;;;23.70;47.50;;;;;;8396173;28;19925;-47
2021/09/12 21:41:55;;;;;;;;;;;23.70;47.50;;;;;;8396441;28;20060;-49
2021/09/12 21:45:56;;;;;;;;;;;23.70;47.50;;;;;;8396194;28;19913;-50
2021/09/12 21:49:56;;;;;;;;;;;23.70;47.50;;;;;;8396678;28;19920;-48
2021/09/12 21:53:57;;;;;;;;;;;23.70;47.50;;;;;;8396187;28;19966;-48
2021/09/12 21:57:58;;;;;;;;;;;23.60;47.40;;;;;;8395437;28;20047;-48
2021/09/12 22:01:58;;;;;;;;;;;23.70;47.50;;;;;;8389721;28;19939;-48
2021/09/12 22:05:59;;;;;;;;;;;23.70;47.50;;;;;;8363428;28;19939;-47
2021/09/12 22:09:59;;;;;;;;;;;23.60;47.50;;;;;;8362422;28;19921;-51
2021/09/12 22:14:00;;;;;;;;;;;23.60;47.40;;;;;;8362926;28;19917;-47
2021/09/12 22:18:00;;;;;;;;;;;23.60;47.40;;;;;;8362564;28;19968;-47
2021/09/12 22:22:01;;;;;;;;;;;23.60;47.40;;;;;;8362721;28;19943;-47
2021/09/12 22:26:02;;;;;;;;;;;23.60;47.50;;;;;;8362479;28;19920;-48
2021/09/12 22:30:03;;;;;;;;;;;23.60;47.50;;;;;;8362415;28;19923;-48
2021/09/12 22:34:04;;;;;;;;;;;23.60;47.50;;;;;;8361884;28;19917;-50
2021/09/12 22:38:04;;;;;;;;;;;23.60;47.50;;;;;;8365317;28;20345;-52
2021/09/12 22:42:05;;;;;;;;;;;23.60;47.50;;;;;;8368878;28;19920;-48
2021/09/12 22:46:05;;;;;;;;;;;23.60;47.50;;;;;;8367663;28;20384;-48
2021/09/12 22:50:06;;;;;;;;;;;23.60;47.50;;;;;;8368156;28;19916;-49
2021/09/12 22:54:07;;;;;;;;;;;23.60;47.50;;;;;;8367941;28;19917;-47
2021/09/12 22:58:07;;;;;;;;;;;23.60;47.50;;;;;;8368151;28;19921;-48
2021/09/12 23:02:08;;;;;;;;;;;23.60;47.50;;;;;;8367592;28;19917;-48
2021/09/12 23:06:09;;;;;;;;;;;23.60;47.50;;;;;;8367312;28;19916;-47
2021/09/12 23:10:09;;;;;;;;;;;23.60;47.60;;;;;;8367191;28;19928;-48
2021/09/12 23:14:10;;;;;;;;;;;23.50;47.50;;;;;;8367939;28;19913;-49
2021/09/12 23:18:10;;;;;;;;;;;23.50;47.50;;;;;;8366985;28;19952;-48
2021/09/12 23:22:10;;;;;;;;;;;23.50;47.50;;;;;;8366519;28;19970;-49